Portada
METAR-TAF:

METAR-TAF

Aeropuertos :

Aeropuerto Internacional de Dusambé

Dusambé, Tayikistán

latitud: 38-33N, longitud: 068-47E, altitud: 803 m

Observación

El informe se hizo hace 25 minutos, a las 01:00 UTC
Viento 10 kt del este-noreste
Temperatura 21°C
Humedad 49%
Presión 1009 hPa
Visibilidad 10 km o más

METAR: UTDD 030100Z 06005MPS 9999 NSC 21/10 Q1009 R09/D NOSIG RMK QFE689/0919

Hora: 06:25 (01:25 UTC)

Pronóstico

El informe se hizo hace 1 hora y 25 minutos, a las 00:00 UTC
Pronóstico válido del 03 a las 01 UTC al 03 a las 13 UTC
Viento 4 kt con dirección variable
Visibilidad: 6000 m
Escasas nubes a una altura de 6000 ft, Cumulonimbus.
Nubes dispersas a una altura de 10000 ft
Probabilidad 40% :
Temporalmente
del 03 a las 07 UTC al 03 a las 13 UTC
tormenta

TAF: UTDD 030000Z 0301/0313 VRB02MPS 6000 FEW060CB SCT100 PROB40 TEMPO 0307/0313 TS

Observaciones y pronósticos meteorológicos de más de 4000 aeropuertos (mensajes METAR y TAF).

Los puntos amarillos y rojos representan las estaciones disponibles.

Ponga el ratón en el punto deseado para ver el nombre de la estación.

Haga clic para ver las observaciones y los pronósticos meteorológicos.

Para cambiar el mapa : haga clic en los botones verdes con una cruz de color negro para hacer un zoom, en el botón verde con un guión para alejar o en las flechas verdes para mapas adyacentes.


METAR-TAF: